VG17 weather

Defense Supply Center Richmond Heliport
Richmond, Virginia, United States

Public forecast

Using degrees Fahrenheit for public forecast. Weather courtesy of forecast.io.

Closest aviation weather report (METAR) to Defense Supply Center Richmond Heliport

Closest report is Chesterfield County Airport, 3.7 nm (6.8 km) WSW. Retrieved 2020/07/16 12:56 UTC (56 minutes ago):

KFCI 161256Z AUTO 00000KT 10SM CLR 25/21 A3022 RMK AO2 SLP243 T02500206

Closest aviation forecast (TAF) to Defense Supply Center Richmond Heliport

Closest forecast is Richmond International Airport, 7.9 nm (14.7 km) NE. Retrieved 2020/07/16 12:22 UTC (1 hour ago):

TAF KRIC 161120Z 1612/1712 14005KT P6SM SCT080 SCT100 FM161600 15009KT P6SM SCT060 FM170000 15005KT P6SM SCT250 FM170900 18004KT P6SM SCT060